Time;durP1;ratioP1;P1;durP2;ratioP2;P2;SDS_P1;SDS_P2;PMS_P1;PMS_P2;Temp;Humidity;BMP_temperature;BMP_pressure;BME280_temperature;BME280_humidity;BME280_pressure;Samples;Min_cycle;Max_cycle;Signal;HPM_P1;HPM_P2
2022/10/20 00:01:56;;;;;;;7.75;4.17;;;;;;;5.89;89.91;100720.12;1713424;82;21510;-60
2022/10/20 00:04:23;;;;;;;8.88;3.27;;;;;;;5.83;89.95;100724.94;1708736;82;21575;-60
2022/10/20 00:06:49;;;;;;;7.20;3.02;;;;;;;5.78;90.04;100728.02;1668813;84;21188;-61
2022/10/20 00:09:16;;;;;;;7.10;3.52;;;;;;;5.74;90.13;100723.73;1716473;83;20863;-60
2022/10/20 00:11:44;;;;;;;7.47;3.50;;;;;;;5.72;90.11;100725.50;1679414;83;21075;-61
2022/10/20 00:14:11;;;;;;;4.75;2.92;;;;;;;5.66;89.96;100724.25;1700147;83;21547;-60
2022/10/20 00:16:39;;;;;;;6.45;2.58;;;;;;;5.56;89.81;100723.06;1695748;82;20915;-60
2022/10/20 00:19:05;;;;;;;5.92;2.67;;;;;;;5.43;89.75;100718.87;1680545;84;21125;-60
2022/10/20 00:21:32;;;;;;;4.50;2.50;;;;;;;5.37;89.88;100721.53;1702587;82;21041;-61
2022/10/20 00:24:00;;;;;;;4.50;2.87;;;;;;;5.30;89.94;100712.98;1709711;83;21436;-60
2022/10/20 00:26:28;;;;;;;8.45;3.12;;;;;;;5.21;89.91;100712.20;1700141;82;20930;-60
2022/10/20 00:28:56;;;;;;;5.90;2.67;;;;;;;5.13;89.98;100720.91;1695247;83;20953;-60
2022/10/20 00:31:24;;;;;;;6.15;2.62;;;;;;;5.01;89.97;100713.23;1703660;82;21058;-61
2022/10/20 00:33:51;;;;;;;6.12;3.42;;;;;;;4.91;89.96;100716.79;1698768;83;20934;-60
2022/10/20 00:36:19;;;;;;;4.95;2.85;;;;;;;4.83;89.96;100718.58;1706059;82;21490;-60
2022/10/20 00:38:46;;;;;;;7.00;2.92;;;;;;;4.69;89.91;100716.95;1707037;82;20953;-60
2022/10/20 00:41:17;;;;;;;6.95;2.87;;;;;;;4.55;89.85;100713.59;1676248;83;20984;-60
2022/10/20 00:43:59;;;;;;;6.50;2.70;;;;;;;4.44;89.87;100719.27;1704600;83;22028;-61
2022/10/20 00:46:39;;;;;;;6.65;2.87;;;;;;;4.35;89.97;100706.41;1705649;83;20977;-60
2022/10/20 00:49:20;;;;;;;5.53;3.37;;;;;;;4.19;89.83;100709.06;1702907;83;21001;-60
2022/10/20 00:51:48;;;;;;;5.85;3.55;;;;;;;4.04;89.94;100705.28;1681248;83;21115;-60
2022/10/20 00:54:17;;;;;;;;;;;;;;;3.95;90.24;100697.55;1695978;84;21017;-60
2022/10/20 00:56:47;;;;;;;4.40;3.27;;;;;;;3.90;90.35;100703.20;1716317;82;21857;-60
2022/10/20 00:59:18;;;;;;;5.30;2.85;;;;;;;3.83;90.36;100697.62;1705633;83;20899;-60
2022/10/20 01:01:45;;;;;;;4.78;3.02;;;;;;;3.77;90.42;100701.94;1706461;82;20945;-60
2022/10/20 01:04:13;;;;;;;5.83;3.20;;;;;;;3.68;90.32;100703.70;1705610;82;20914;-59
2022/10/20 01:06:39;;;;;;;6.62;3.45;;;;;;;3.59;90.26;100699.44;1703510;82;20989;-60
2022/10/20 01:09:07;;;;;;;5.40;2.83;;;;;;;3.52;90.30;100700.30;1705934;83;21110;-60
2022/10/20 01:12:04;;;;;;;5.00;3.08;;;;;;;3.46;90.25;100697.74;1712466;82;20891;-60
2022/10/20 01:14:42;;;;;;;4.80;2.55;;;;;;;3.41;90.39;100696.89;1708334;82;21104;-60
2022/10/20 01:17:19;;;;;;;6.03;2.37;;;;;;;3.33;90.32;100698.19;1701384;83;20954;-60
2022/10/20 01:20:09;;;;;;;4.35;2.10;;;;;;;3.23;90.30;100693.48;1708168;82;21041;-60
2022/10/20 01:23:20;;;;;;;4.10;1.82;;;;;;;3.19;90.35;100688.33;1699521;83;21132;-60
2022/10/20 01:26:09;;;;;;;4.28;1.77;;;;;;;3.13;90.37;100694.36;1706180;83;20986;-60
2022/10/20 01:28:53;;;;;;;3.42;1.95;;;;;;;3.05;90.23;100696.97;1699734;82;21004;-60
2022/10/20 01:31:45;;;;;;;4.37;2.08;;;;;;;2.99;90.25;100687.06;1710845;82;21037;-60
2022/10/20 01:34:44;;;;;;;6.53;2.52;;;;;;;2.93;90.29;100687.08;1701188;82;21160;-60
2022/10/20 01:37:16;;;;;;;2.67;2.10;;;;;;;2.89;90.32;100695.25;1700648;82;22330;-60
2022/10/20 01:39:52;;;;;;;3.47;1.98;;;;;;;2.84;90.37;100691.81;1749546;80;21552;-60
2022/10/20 01:42:28;;;;;;;5.78;2.02;;;;;;;2.80;90.38;100688.37;1743840;80;20888;-59
2022/10/20 01:44:59;;;;;;;5.60;2.17;;;;;;;2.79;90.43;100699.53;1744816;80;20968;-60
2022/10/20 01:47:28;;;;;;;4.05;2.05;;;;;;;2.75;90.39;100696.98;1750030;80;20957;-60
2022/10/20 01:49:56;;;;;;;8.03;2.02;;;;;;;2.72;90.46;100695.25;1681989;84;21557;-60
2022/10/20 01:52:24;;;;;;;2.77;1.90;;;;;;;2.72;90.52;100693.08;1692290;83;21019;-60
2022/10/20 01:54:50;;;;;;;3.42;1.72;;;;;;;2.70;90.53;100696.97;1677999;84;21033;-60
2022/10/20 01:57:34;;;;;;;7.10;1.95;;;;;;;2.68;90.51;100688.36;1702596;82;21157;-60
2022/10/20 02:00:10;;;;;;;4.40;1.98;;;;;;;2.68;90.58;100693.52;1708276;82;21003;-60
2022/10/20 02:02:59;;;;;;;3.30;2.10;;;;;;;2.71;90.68;100694.80;1700570;82;21132;-60
2022/10/20 02:06:08;;;;;;;3.62;2.17;;;;;;;2.74;90.75;100693.51;1704486;81;20964;-60
2022/10/20 02:08:53;;;;;;;4.67;2.08;;;;;;;2.78;90.80;100687.95;1715196;81;21061;-60
2022/10/20 02:11:45;;;;;;;4.45;2.10;;;;;;;2.81;90.77;100690.09;1705378;81;20960;-60
2022/10/20 02:14:16;;;;;;;3.90;2.75;;;;;;;2.82;90.77;100685.78;1720136;83;20993;-60
2022/10/20 02:16:48;;;;;;;2.95;2.30;;;;;;;2.83;90.76;100683.63;1710069;82;21990;-60
2022/10/20 02:19:20;;;;;;;4.50;2.50;;;;;;;2.82;90.79;100686.64;1699980;82;20993;-60
2022/10/20 02:21:47;;;;;;;3.60;2.27;;;;;;;2.79;90.77;100686.64;1698143;82;21099;-60
2022/10/20 02:24:16;;;;;;;3.55;2.17;;;;;;;2.77;90.80;100689.64;1738503;81;21001;-60
2022/10/20 02:26:44;;;;;;;7.95;2.20;;;;;;;2.77;90.84;100690.93;1731525;81;21414;-60
2022/10/20 02:29:19;;;;;;;3.55;2.25;;;;;;;2.76;90.85;100684.06;1746825;80;21895;-61
2022/10/20 02:31:46;;;;;;;5.03;2.20;;;;;;;2.74;90.79;100689.64;1735339;80;21673;-60
2022/10/20 02:34:14;;;;;;;8.85;2.60;;;;;;;2.71;90.82;100687.06;1711829;82;20950;-61
2022/10/20 02:36:43;;;;;;;3.85;1.90;;;;;;;2.68;90.87;100691.79;1739015;81;21033;-61
2022/10/20 02:39:10;;;;;;;3.98;2.27;;;;;;;2.68;90.91;100691.79;1746929;80;21033;-60
2022/10/20 02:41:37;;;;;;;;;;;;;;;2.63;90.82;100685.80;1751762;81;21087;-60
2022/10/20 02:44:04;;;;;;;4.58;2.33;;;;;;;2.61;90.83;100680.20;1744790;81;20161;-59
2022/10/20 02:46:30;;;;;;;4.78;2.30;;;;;;;2.55;90.79;100686.62;1749889;80;21107;-61
2022/10/20 02:48:57;;;;;;;3.10;1.87;;;;;;;2.49;90.84;100676.31;1750083;81;20926;-60
2022/10/20 02:51:24;;;;;;;3.53;2.00;;;;;;;2.46;90.94;100680.63;1746458;81;21922;-60
2022/10/20 02:53:50;;;;;;;6.73;2.00;;;;;;;2.43;91.04;100680.59;1738028;81;21176;-60
2022/10/20 02:56:17;;;;;;;2.47;1.70;;;;;;;2.40;91.06;100684.45;1746223;80;21088;-60
2022/10/20 02:58:44;;;;;;;4.00;2.22;;;;;;;2.36;91.12;100688.34;1746810;81;21013;-60
2022/10/20 03:01:11;;;;;;;3.83;1.70;;;;;;;2.33;91.15;100690.91;1681156;84;21736;-60
2022/10/20 03:03:37;;;;;;;3.87;1.90;;;;;;;2.31;91.17;100690.90;1738000;80;20946;-60
2022/10/20 03:06:13;;;;;;;5.97;2.00;;;;;;;2.27;91.18;100686.61;1751104;81;21079;-60
2022/10/20 03:08:41;;;;;;;4.00;2.27;;;;;;;2.25;91.17;100698.63;1746647;80;20956;-60
2022/10/20 03:11:08;;;;;;;4.78;1.67;;;;;;;2.21;91.23;100691.32;1753129;80;23177;-60
2022/10/20 03:13:34;;;;;;;5.67;2.00;;;;;;;2.19;91.27;100696.03;1744700;81;21005;-60
2022/10/20 03:16:01;;;;;;;3.60;1.73;;;;;;;2.19;91.41;100693.46;1746756;81;20978;-60
2022/10/20 03:18:28;;;;;;;3.95;2.05;;;;;;;2.17;91.41;100693.44;1755961;81;21205;-60
2022/10/20 03:20:55;;;;;;;4.10;2.40;;;;;;;2.18;91.06;100700.30;1737654;81;20990;-60
2022/10/20 03:23:22;;;;;;;3.23;2.10;;;;;;;2.18;91.06;100700.30;1741756;81;21274;-60
2022/10/20 03:25:48;;;;;;;2.47;1.75;;;;;;;2.18;91.39;100699.45;1750244;81;20962;-60
2022/10/20 03:28:15;;;;;;;7.97;2.58;;;;;;;2.16;91.39;100706.34;1756014;81;21051;-60
2022/10/20 03:30:42;;;;;;;3.87;2.20;;;;;;;2.14;91.32;100702.89;1748708;81;21052;-60
2022/10/20 03:33:08;;;;;;;13.70;2.70;;;;;;;2.10;91.28;100707.58;1748010;81;21694;-61
2022/10/20 03:35:35;;;;;;;6.20;3.35;;;;;;;2.04;91.24;100706.28;1746350;80;20985;-61
2022/10/20 03:38:02;;;;;;;7.62;2.25;;;;;;;1.98;91.32;100713.12;1746318;81;20953;-60
2022/10/20 03:40:29;;;;;;;4.37;2.13;;;;;;;1.92;91.31;100715.69;1753917;81;21138;-59
2022/10/20 03:42:55;;;;;;;6.90;2.10;;;;;;;1.88;91.37;100720.41;1741708;80;21733;-60
2022/10/20 03:45:22;;;;;;;9.08;2.70;;;;;;;1.86;91.51;100723.39;1746219;81;21216;-60
2022/10/20 03:47:49;;;;;;;9.10;2.50;;;;;;;1.86;91.66;100727.25;1752511;81;20930;-60
2022/10/20 03:50:16;;;;;;;4.70;2.10;;;;;;;1.88;91.67;100729.42;1742599;81;20906;-60
2022/10/20 03:52:42;;;;;;;9.13;2.00;;;;;;;1.86;91.62;100728.55;1756377;81;21506;-60
2022/10/20 03:55:09;;;;;;;5.65;1.90;;;;;;;1.83;91.58;100723.38;1742701;81;21039;-60
2022/10/20 03:57:36;;;;;;;9.67;2.30;;;;;;;1.82;91.56;100719.09;1738403;81;20950;-60
2022/10/20 04:00:03;;;;;;;8.58;2.15;;;;;;;1.77;91.49;100714.34;1732127;81;20998;-59
2022/10/20 04:02:32;;;;;;;;;;;;;;;1.71;91.46;100719.04;1755894;81;20942;-60
2022/10/20 04:05:00;;;;;;;3.22;2.35;;;;;;;1.68;91.61;100723.30;1747487;81;20161;-60
2022/10/20 04:07:26;;;;;;;4.33;2.40;;;;;;;1.59;91.48;100715.09;1746044;81;22381;-60
2022/10/20 04:09:54;;;;;;;3.00;1.93;;;;;;;1.59;91.48;100715.09;1745252;81;20981;-60
2022/10/20 04:12:22;;;;;;;4.35;2.27;;;;;;;1.62;91.74;100720.70;1744003;80;20969;-60
2022/10/20 04:14:49;;;;;;;5.83;2.65;;;;;;;1.64;91.86;100708.27;1744008;81;20957;-60
2022/10/20 04:17:15;;;;;;;11.63;2.67;;;;;;;1.67;91.86;100706.14;1705896;82;21033;-60
2022/10/20 04:19:42;;;;;;;8.18;2.72;;;;;;;1.68;91.85;100706.16;1706010;82;21145;-60
2022/10/20 04:22:09;;;;;;;8.43;2.33;;;;;;;1.74;91.92;100718.20;1746559;80;20970;-59
2022/10/20 04:24:35;;;;;;;3.05;1.70;;;;;;;1.78;92.07;100713.05;1743609;81;20965;-60
2022/10/20 04:27:02;;;;;;;5.37;1.98;;;;;;;1.88;92.21;100714.40;1753955;80;20867;-60
2022/10/20 04:29:29;;;;;;;10.53;2.92;;;;;;;1.94;92.25;100711.41;1749860;80;21594;-60
2022/10/20 04:31:56;;;;;;;7.55;2.80;;;;;;;1.97;92.07;100713.14;1744519;81;21082;-60
2022/10/20 04:34:23;;;;;;;9.87;2.23;;;;;;;1.99;92.16;100713.58;1705428;82;20931;-60
2022/10/20 04:36:49;;;;;;;7.10;2.43;;;;;;;2.05;92.21;100709.31;1706172;82;20907;-60
2022/10/20 04:39:16;;;;;;;5.37;2.50;;;;;;;2.08;92.20;100715.75;1706660;83;20910;-60
2022/10/20 04:41:43;;;;;;;8.55;2.60;;;;;;;2.10;92.15;100714.02;1704470;82;20962;-60
2022/10/20 04:44:09;;;;;;;6.60;2.33;;;;;;;2.12;92.31;100716.19;1711426;82;21095;-60
2022/10/20 04:46:36;;;;;;;7.92;2.12;;;;;;;2.17;92.37;100704.18;1706664;82;20899;-60
2022/10/20 04:49:04;;;;;;;4.75;2.05;;;;;;;2.24;92.49;100707.19;1706543;83;21507;-60
2022/10/20 04:51:30;;;;;;;4.97;2.37;;;;;;;2.30;92.54;100699.50;1707112;83;21516;-60
2022/10/20 04:53:57;;;;;;;4.07;1.80;;;;;;;2.36;92.51;100695.64;1700346;82;21531;-60
2022/10/20 04:56:24;;;;;;;15.30;2.80;;;;;;;2.39;92.44;100696.93;1672135;84;21028;-60
2022/10/20 04:58:54;;;;;;;11.10;2.47;;;;;;;2.43;92.42;100699.92;1703251;83;21552;-60
2022/10/20 05:01:23;;;;;;;5.33;1.95;;;;;;;2.53;92.76;100694.81;1701426;83;21059;-60
2022/10/20 05:03:49;;;;;;;5.08;2.42;;;;;;;2.58;92.67;100686.66;1750522;80;21515;-60
2022/10/20 05:06:23;;;;;;;5.37;2.20;;;;;;;2.62;92.67;100692.23;1747469;81;20942;-60
2022/10/20 05:08:52;;;;;;;6.33;1.85;;;;;;;2.66;92.73;100685.80;1710036;82;21607;-60
2022/10/20 05:11:21;;;;;;;6.28;1.92;;;;;;;2.69;92.62;100688.81;1711214;82;21055;-60
2022/10/20 05:13:48;;;;;;;9.60;2.22;;;;;;;2.66;92.51;100687.48;1714864;82;20993;-60
2022/10/20 05:16:16;;;;;;;9.65;2.35;;;;;;;2.62;92.36;100691.80;1715396;82;21487;-59
2022/10/20 05:18:44;;;;;;;7.58;1.82;;;;;;;2.59;92.34;100690.94;1712815;82;21041;-60
2022/10/20 05:21:20;;;;;;;8.45;2.02;;;;;;;2.60;92.50;100697.80;1697829;83;21065;-60
2022/10/20 05:23:47;;;;;;;6.62;1.90;;;;;;;2.60;92.55;100690.92;1751683;81;21499;-61
2022/10/20 05:26:16;;;;;;;6.45;2.70;;;;;;;2.63;92.65;100697.80;1748547;81;21572;-59
2022/10/20 05:28:46;;;;;;;13.25;7.28;;;;;;;2.66;92.72;100692.64;1743356;81;21045;-59
2022/10/20 05:31:14;;;;;;;14.23;8.45;;;;;;;2.71;92.79;100693.52;1742779;81;21075;-59
2022/10/20 05:33:45;;;;;;;19.40;6.22;;;;;;;2.74;92.79;100693.51;1748051;81;21132;-60
2022/10/20 05:36:14;;;;;;;8.48;3.00;;;;;;;2.76;92.74;100694.37;1751512;80;20985;-60
2022/10/20 05:38:41;;;;;;;7.33;3.22;;;;;;;2.78;92.75;100700.41;1751940;81;20934;-60
2022/10/20 05:41:14;;;;;;;7.70;3.57;;;;;;;2.86;92.93;100696.11;1743401;81;20989;-60
2022/10/20 05:43:41;;;;;;;10.63;2.60;;;;;;;2.98;92.99;100695.23;1746145;81;21557;-60
2022/10/20 05:46:08;;;;;;;8.27;2.60;;;;;;;3.12;92.96;100695.23;1756239;81;21038;-61
2022/10/20 05:48:35;;;;;;;;;;;;;;;3.31;93.24;100696.92;1760354;81;20970;-61
2022/10/20 05:51:15;;;;;;;8.05;2.30;;;;;;;3.65;93.44;100701.14;1746738;81;20105;-61
2022/10/20 05:53:43;;;;;;;6.30;1.98;;;;;;;3.90;92.87;100695.45;1756409;80;21037;-60
2022/10/20 05:56:13;;;;;;;6.72;3.10;;;;;;;4.01;92.33;100700.13;1740571;81;21045;-60
2022/10/20 05:58:40;;;;;;;6.40;2.80;;;;;;;3.95;91.85;100700.14;1753024;81;20981;-61
2022/10/20 06:01:16;;;;;;;;;;;;;;;3.89;91.90;100707.92;1758489;81;21534;-61
2022/10/20 06:03:50;;;;;;;7.95;4.78;;;;;;;3.84;91.81;100705.37;1745421;80;20213;-61
2022/10/20 06:06:18;;;;;;;7.95;5.33;;;;;;;3.86;92.12;100706.64;1738483;80;20934;-61
2022/10/20 06:08:45;;;;;;;9.98;4.30;;;;;;;3.85;92.06;100702.36;1741184;81;21003;-61
2022/10/20 06:11:14;;;;;;;8.70;4.28;;;;;;;3.96;92.32;100702.73;1748407;80;21091;-60
2022/10/20 06:13:41;;;;;;;8.38;4.30;;;;;;;4.21;92.50;100706.05;1716587;81;20929;-61
2022/10/20 06:16:12;;;;;;;9.40;4.78;;;;;;;4.57;92.54;100705.41;1748929;81;32814;-62
2022/10/20 06:18:41;;;;;;;7.17;3.58;;;;;;;4.95;92.19;100705.52;1743174;80;20961;-61
2022/10/20 06:21:17;;;;;;;6.75;2.95;;;;;;;5.34;91.90;100703.44;1738253;80;20930;-60
2022/10/20 06:23:44;;;;;;;7.37;3.40;;;;;;;5.78;92.19;100700.36;1743817;80;21085;-63
2022/10/20 06:26:16;;;;;;;3.85;2.25;;;;;;;6.14;91.41;100706.45;1746650;81;22217;-61
2022/10/20 06:28:46;;;;;;;4.62;2.33;;;;;;;6.07;90.45;100704.80;1734457;81;21014;-61
2022/10/20 06:31:17;;;;;;;6.47;2.20;;;;;;;5.87;90.19;100714.95;1712446;81;21499;-61
2022/10/20 06:33:44;;;;;;;3.02;1.70;;;;;;;5.91;90.82;100711.45;1704633;82;20973;-61
2022/10/20 06:36:12;;;;;;;5.92;2.40;;;;;;;6.05;90.77;100713.91;1750474;81;21145;-60
2022/10/20 06:38:39;;;;;;;;;;;;;;;6.22;90.80;100711.09;1747629;81;20918;-61
2022/10/20 06:41:08;;;;;;;5.85;2.37;;;;;;;6.40;90.76;100708.22;1741638;81;20090;-61
2022/10/20 06:43:35;;;;;;;13.25;3.30;;;;;;;6.58;90.83;100710.12;1746306;81;20922;-61
2022/10/20 06:46:06;;;;;;;6.30;3.97;;;;;;;6.75;90.64;100713.34;1745033;81;21041;-62
2022/10/20 06:48:35;;;;;;;6.80;3.08;;;;;;;6.93;90.55;100719.52;1746193;81;21049;-61
2022/10/20 06:51:06;;;;;;;6.28;2.77;;;;;;;7.09;90.46;100708.89;1707411;82;21476;-61
2022/10/20 06:53:35;;;;;;;5.20;2.17;;;;;;;7.08;90.80;100722.30;1708134;82;21483;-61
2022/10/20 06:56:14;;;;;;;3.42;2.27;;;;;;;7.10;91.15;100723.13;1702379;82;20974;-62
2022/10/20 06:58:44;;;;;;;7.80;2.50;;;;;;;7.08;91.30;100726.19;1704387;82;21656;-61
2022/10/20 07:01:14;;;;;;;3.62;2.17;;;;;;;7.06;91.66;100728.42;1677895;83;21057;-62
2022/10/20 07:03:41;;;;;;;6.17;2.25;;;;;;;7.00;91.71;100732.39;1714602;82;20967;-62
2022/10/20 07:06:15;;;;;;;4.97;2.33;;;;;;;6.95;92.17;100728.15;1706141;83;20922;-62
2022/10/20 07:08:43;;;;;;;8.38;3.25;;;;;;;6.99;92.69;100725.50;1700573;82;20999;-62
2022/10/20 07:11:13;;;;;;;9.13;3.15;;;;;;;7.00;92.38;100727.20;1688369;83;21052;-63
2022/10/20 07:13:40;;;;;;;4.35;2.40;;;;;;;7.09;92.71;100724.48;1702504;83;21053;-63
2022/10/20 07:16:08;;;;;;;6.47;2.72;;;;;;;7.12;92.70;100733.06;1704330;82;21001;-62
2022/10/20 07:18:36;;;;;;;4.40;2.25;;;;;;;7.20;92.90;100727.75;1696515;82;21502;-62
2022/10/20 07:21:06;;;;;;;5.40;2.42;;;;;;;7.29;92.72;100740.56;1702263;82;20948;-63
2022/10/20 07:23:34;;;;;;;2.60;1.45;;;;;;;7.32;92.72;100735.31;1688055;83;20942;-63
2022/10/20 07:26:10;;;;;;;2.37;1.00;;;;;;;7.41;93.21;100738.19;1682431;83;20998;-63
2022/10/20 07:28:44;;;;;;;1.82;0.88;;;;;;;7.64;93.78;100732.55;1702282;83;20954;-62
2022/10/20 07:31:16;;;;;;;3.33;0.70;;;;;;;7.74;93.15;100728.91;1700291;83;20926;-60
2022/10/20 07:33:42;;;;;;;0.70;0.70;;;;;;;7.83;93.40;100740.41;1700593;83;21045;-61
2022/10/20 07:36:19;;;;;;;1.10;0.80;;;;;;;7.93;93.53;100735.91;1707316;82;20910;-61
2022/10/20 07:38:47;;;;;;;2.93;0.63;;;;;;;8.00;93.33;100731.42;1706068;83;21312;-61
2022/10/20 07:41:14;;;;;;;0.90;0.62;;;;;;;8.05;93.11;100729.59;1706845;83;20891;-61
2022/10/20 07:43:42;;;;;;;1.15;0.62;;;;;;;8.06;92.86;100738.64;1709135;82;20949;-62
2022/10/20 08:23:45;;;;;;;1.75;1.00;;;;;;;9.43;92.30;100735.93;1195752;118;21796;-62
2022/10/20 08:26:21;;;;;;;1.07;0.70;;;;;;;9.68;92.43;100729.61;1190703;119;21229;-63
2022/10/20 08:28:49;;;;;;;1.35;0.80;;;;;;;9.80;92.41;100733.17;1210391;115;21652;-63
2022/10/20 08:31:16;;;;;;;5.00;0.80;;;;;;;9.91;92.38;100724.59;1307183;104;21561;-62
2022/10/20 08:33:42;;;;;;;2.30;0.60;;;;;;;9.89;91.81;100722.50;1428701;94;21028;-64
2022/10/20 08:36:13;;;;;;;1.17;0.68;;;;;;;9.97;92.05;100723.14;1493644;93;21024;-63
2022/10/20 08:38:41;;;;;;;3.27;0.80;;;;;;;10.01;91.84;100719.52;1533732;87;21630;-63
2022/10/20 08:41:19;;;;;;;1.62;0.70;;;;;;;10.05;92.12;100718.55;1553098;91;21584;-63
2022/10/20 08:43:48;;;;;;;1.55;0.78;;;;;;;10.06;91.42;100717.64;1563407;89;21279;-62
2022/10/20 08:46:18;;;;;;;3.52;0.60;;;;;;;10.01;91.36;100719.52;1570789;89;21072;-62
2022/10/20 08:48:47;;;;;;;1.42;0.78;;;;;;;10.00;91.39;100720.44;1587864;83;21071;-62
2022/10/20 08:51:24;;;;;;;1.87;0.82;;;;;;;10.12;91.63;100719.22;1696943;83;21060;-61
2022/10/20 08:53:54;;;;;;;1.40;0.95;;;;;;;10.24;91.91;100716.23;1707573;82;21003;-62
2022/10/20 08:56:26;;;;;;;1.10;0.50;;;;;;;10.31;91.55;100722.17;1709003;82;21095;-62
2022/10/20 08:58:53;;;;;;;1.02;0.60;;;;;;;10.41;91.79;100718.36;1705954;82;20957;-63
2022/10/20 09:01:24;;;;;;;0.60;0.60;;;;;;;10.54;91.56;100714.94;1713566;82;20962;-62
2022/10/20 09:04:47;;;;;;;1.52;0.78;;;;;;;10.58;90.77;100718.30;1750111;80;21899;-63
2022/10/20 09:07:33;;;;;;;1.82;0.80;;;;;;;10.80;90.35;100714.55;1754765;80;20942;-63
2022/10/20 09:11:13;;;;;;;0.80;0.55;;;;;;;10.80;90.35;100714.55;1744800;80;21072;-62
2022/10/20 09:13:40;;;;;;;0.65;0.50;;;;;;;10.92;90.98;100715.02;1710146;82;20954;-61
2022/10/20 09:16:24;;;;;;;1.32;0.78;;;;;;;11.09;90.55;100716.20;1705555;82;20997;-61
2022/10/20 09:18:56;;;;;;;1.02;0.60;;;;;;;11.15;90.67;100713.41;1712381;82;21018;-61
2022/10/20 09:21:23;;;;;;;1.25;0.50;;;;;;;11.35;90.72;100714.87;1709080;83;21550;-62
2022/10/20 09:23:54;;;;;;;1.77;0.65;;;;;;;11.50;90.50;100716.55;1719026;82;21907;-61
2022/10/20 09:26:33;;;;;;;0.60;0.50;;;;;;;11.71;90.36;100721.02;1712663;82;21598;-61
2022/10/20 09:29:08;;;;;;;0.70;0.40;;;;;;;11.96;90.65;100716.21;1704725;82;21084;-60
2022/10/20 09:31:48;;;;;;;1.00;0.60;;;;;;;12.22;90.23;100712.17;1714521;82;21014;-61
2022/10/20 09:34:28;;;;;;;1.30;0.55;;;;;;;12.42;90.63;100713.17;1743969;80;21156;-61
2022/10/20 09:37:15;;;;;;;1.52;0.60;;;;;;;12.53;89.97;100706.59;1742620;80;21056;-61
2022/10/20 09:39:57;;;;;;;1.52;0.50;;;;;;;12.76;90.17;100705.66;1751660;80;20938;-61
2022/10/20 09:42:34;;;;;;;1.00;0.50;;;;;;;13.02;90.13;100705.04;1750517;80;20911;-61
2022/10/20 09:45:25;;;;;;;0.45;0.45;;;;;;;13.07;89.55;100709.64;1751871;80;20965;-60
2022/10/20 09:47:57;;;;;;;0.40;0.35;;;;;;;13.05;88.74;100702.31;1751877;80;20942;-61
2022/10/20 09:50:32;;;;;;;14.23;6.17;;;;;;;12.80;88.18;100698.55;1748457;80;22091;-61
2022/10/20 09:53:01;;;;;;;2.72;1.50;;;;;;;12.80;88.37;100708.16;1749289;80;21083;-62
2022/10/20 09:55:41;;;;;;;1.10;0.60;;;;;;;12.78;88.62;100700.84;1674742;82;20926;-61
2022/10/20 09:58:11;;;;;;;1.52;0.60;;;;;;;12.79;88.70;100701.22;1713241;82;20957;-60
2022/10/20 10:00:45;;;;;;;1.67;0.53;;;;;;;12.87;88.89;100700.45;1700675;82;20914;-61
2022/10/20 10:03:21;;;;;;;1.40;0.40;;;;;;;12.68;87.83;100696.41;1695748;83;21085;-62
2022/10/20 10:05:52;;;;;;;4.05;0.80;;;;;;;12.74;88.73;100694.84;1696720;83;21615;-61
2022/10/20 10:08:20;;;;;;;0.60;0.40;;;;;;;12.88;88.76;100703.45;1697260;83;21511;-61
2022/10/20 10:11:04;;;;;;;0.90;0.50;;;;;;;13.00;88.78;100697.72;1728154;81;20898;-62
2022/10/20 10:13:38;;;;;;;1.05;0.45;;;;;;;12.98;87.93;100702.16;1725003;81;21437;-62
2022/10/20 10:16:09;;;;;;;2.12;0.57;;;;;;;12.95;87.53;100697.05;1709168;81;21044;-62
2022/10/20 10:18:37;;;;;;;0.70;0.50;;;;;;;12.95;87.91;100694.44;1723789;81;20899;-62
2022/10/20 10:21:09;;;;;;;0.82;0.50;;;;;;;13.14;88.28;100689.28;1715515;81;20917;-62
2022/10/20 10:23:52;;;;;;;1.40;0.75;;;;;;;13.22;87.46;100693.73;1719369;82;20919;-62
2022/10/20 10:26:44;;;;;;;1.65;0.53;;;;;;;13.19;87.35;100685.54;1724678;81;21111;-62
2022/10/20 10:29:25;;;;;;;1.25;0.60;;;;;;;13.13;87.09;100677.91;1717978;81;22429;-62
2022/10/20 10:32:11;;;;;;;0.70;0.45;;;;;;;13.11;86.65;100685.02;1722498;81;21060;-62
2022/10/20 10:35:18;;;;;;;0.62;0.47;;;;;;;13.23;87.39;100680.16;1727241;82;21005;-62
2022/10/20 10:37:46;;;;;;;0.93;0.40;;;;;;;13.28;86.77;100679.55;1722392;82;20946;-62
2022/10/20 10:40:20;;;;;;;0.90;0.42;;;;;;;13.14;85.69;100674.39;1724096;82;21072;-62
2022/10/20 10:43:07;;;;;;;1.17;0.37;;;;;;;13.06;86.30;100673.02;1717597;81;21051;-62
2022/10/20 10:45:50;;;;;;;3.65;0.68;;;;;;;13.01;85.73;100673.20;1732893;81;21440;-62
2022/10/20 10:48:31;;;;;;;4.62;0.57;;;;;;;13.07;86.29;100670.31;1720425;81;20917;-62
2022/10/20 10:51:02;;;;;;;0.68;0.45;;;;;;;13.14;85.83;100665.21;1697352;81;21029;-62
2022/10/20 10:53:40;;;;;;;1.27;0.50;;;;;;;13.18;85.80;100665.92;1705671;81;20926;-62
2022/10/20 10:56:32;;;;;;;2.45;0.55;;;;;;;13.27;86.02;100668.64;1717485;82;22592;-61
2022/10/20 10:59:07;;;;;;;1.42;0.62;;;;;;;13.32;85.70;100664.05;1723118;81;20954;-61
2022/10/20 11:02:05;;;;;;;0.62;0.50;;;;;;;13.45;85.80;100665.22;1718415;82;20914;-61
2022/10/20 11:04:49;;;;;;;0.65;0.57;;;;;;;13.48;85.48;100662.46;1720205;82;20945;-61
2022/10/20 11:07:39;;;;;;;1.22;0.60;;;;;;;13.42;84.80;100664.90;1699402;82;20973;-61
2022/10/20 11:10:31;;;;;;;0.68;0.50;;;;;;;13.38;84.88;100658.53;1691591;83;21512;-61
2022/10/20 11:13:20;;;;;;;0.68;0.45;;;;;;;;;;1691700;82;21532;-61
2022/10/20 11:16:09;;;;;;;0.60;0.50;;;;;;;13.11;83.96;100652.70;1691732;83;20934;-63
2022/10/20 11:19:12;;;;;;;0.80;0.60;;;;;;;12.93;83.33;100640.75;1687265;82;20994;-62
2022/10/20 11:22:11;;;;;;;0.62;0.57;;;;;;;12.51;83.04;100647.31;1690499;82;21023;-61
2022/10/20 11:25:09;;;;;;;1.95;0.40;;;;;;;12.27;83.54;100642.16;1689737;83;21504;-61
2022/10/20 11:27:37;;;;;;;2.33;0.53;;;;;;;12.24;83.57;100635.73;1687965;83;21106;-61
2022/10/20 11:30:15;;;;;;;1.10;0.50;;;;;;;12.29;83.64;100632.48;1690820;83;21503;-62
2022/10/20 11:32:53;;;;;;;1.57;0.45;;;;;;;12.08;82.69;100621.53;1688358;82;21073;-61
2022/10/20 11:35:46;;;;;;;3.35;1.37;;;;;;;11.77;79.82;100628.38;1690524;82;21065;-62
2022/10/20 11:38:18;;;;;;;1.57;0.60;;;;;;;11.47;80.66;100619.89;1690409;83;20981;-62
2022/10/20 11:41:09;;;;;;;2.80;0.42;;;;;;;11.41;81.97;100613.13;1691204;83;21954;-62
2022/10/20 11:43:56;;;;;;;0.65;0.50;;;;;;;11.55;83.05;100603.47;1695566;82;21067;-62
2022/10/20 11:46:34;;;;;;;1.62;0.50;;;;;;;11.73;83.01;100606.69;1724306;82;20929;-62
2022/10/20 11:49:03;;;;;;;1.37;0.50;;;;;;;11.78;82.51;100611.29;1717278;82;20965;-62
2022/10/20 11:51:40;;;;;;;0.60;0.53;;;;;;;11.58;82.07;100600.73;1730434;82;21047;-61
2022/10/20 11:54:32;;;;;;;1.17;0.70;;;;;;;11.38;81.90;100598.41;1726925;81;20951;-62
2022/10/20 11:57:37;;;;;;;2.10;0.70;;;;;;;11.26;81.89;100596.67;1722633;81;21079;-62
2022/10/20 12:00:20;;;;;;;0.90;0.50;;;;;;;11.07;81.67;100589.97;1724005;82;20945;-61
2022/10/20 12:03:17;;;;;;;1.27;0.50;;;;;;;10.89;81.70;100585.76;1703431;83;21068;-61
2022/10/20 12:05:56;;;;;;;2.83;1.00;;;;;;;10.75;81.76;100582.77;1703901;83;21939;-61
2022/10/20 12:08:47;;;;;;;1.85;1.05;;;;;;;10.79;82.27;100584.39;1707702;83;21011;-62
2022/10/20 12:11:36;;;;;;;0.95;0.70;;;;;;;10.82;81.54;100576.45;1681796;84;21105;-62
2022/10/20 12:14:29;;;;;;;1.72;0.90;;;;;;;10.79;81.78;100585.70;1683370;84;20941;-62
2022/10/20 12:17:01;;;;;;;1.25;0.78;;;;;;;10.84;81.60;100577.25;1680303;83;21508;-62
2022/10/20 12:19:35;;;;;;;1.00;0.65;;;;;;;10.80;81.89;100556.05;1680762;84;21235;-61
2022/10/20 12:22:19;;;;;;;7.15;1.22;;;;;;;10.98;81.83;100576.31;1683228;83;20989;-61
2022/10/20 12:24:55;;;;;;;0.95;0.68;;;;;;;11.05;81.68;100570.41;1683155;85;20999;-60
2022/10/20 12:27:26;;;;;;;3.60;0.72;;;;;;;11.09;81.00;100565.48;1683398;85;21561;-61
2022/10/20 12:30:19;;;;;;;1.67;0.70;;;;;;;10.98;79.94;100565.86;1684465;84;21539;-61
2022/10/20 12:32:59;;;;;;;0.70;0.50;;;;;;;10.97;80.72;100564.14;1682979;83;21228;-61
2022/10/20 12:35:29;;;;;;;2.35;0.60;;;;;;;11.09;80.96;100560.69;1704550;83;20953;-61
2022/10/20 12:38:04;;;;;;;1.35;0.72;;;;;;;11.18;80.72;100561.69;1703378;82;20997;-61
2022/10/20 12:40:48;;;;;;;7.80;0.88;;;;;;;11.14;80.47;100560.07;1722765;82;21468;-63